createdAt,value
2023-02-13T00:00:56.348Z,30.90
2023-02-13T00:03:28.000Z,31.27
2023-02-13T00:05:59.479Z,31.80
2023-02-13T00:08:30.930Z,32.07
2023-02-13T00:11:02.334Z,31.75
2023-02-13T00:13:34.779Z,31.08
2023-02-13T00:16:06.517Z,33.47
2023-02-13T00:18:38.846Z,32.40
2023-02-13T00:21:12.469Z,33.33
2023-02-13T00:23:43.936Z,32.45
2023-02-13T00:26:17.060Z,33.03
2023-02-13T00:28:48.543Z,34.30
2023-02-13T00:31:21.582Z,33.50
2023-02-13T00:33:53.058Z,32.87
2023-02-13T00:36:24.552Z,33.20
2023-02-13T00:38:56.030Z,34.20
2023-02-13T00:41:27.468Z,34.33
2023-02-13T00:43:58.902Z,31.98
2023-02-13T00:46:30.461Z,34.22
2023-02-13T00:49:02.134Z,33.08
2023-02-13T00:51:33.687Z,33.60
2023-02-13T00:54:05.195Z,33.60
2023-02-13T00:56:36.617Z,33.58
2023-02-13T00:59:08.138Z,33.97
2023-02-13T01:01:39.668Z,32.55
2023-02-13T01:04:11.453Z,34.20
2023-02-13T01:06:42.876Z,32.58
2023-02-13T01:09:14.370Z,35.57
2023-02-13T01:11:45.820Z,35.17
2023-02-13T01:14:17.302Z,33.95
2023-02-13T01:16:48.746Z,36.10
2023-02-13T01:19:20.176Z,35.05
2023-02-13T01:21:51.702Z,35.72
2023-02-13T01:24:23.136Z,35.47
2023-02-13T01:26:54.584Z,36.20
2023-02-13T01:29:25.987Z,34.58
2023-02-13T01:31:57.601Z,35.90
2023-02-13T01:34:29.068Z,36.05
2023-02-13T01:37:00.525Z,33.80
2023-02-13T01:39:32.151Z,34.08
2023-02-13T01:42:03.828Z,35.67
2023-02-13T01:44:51.151Z,35.90
2023-02-13T01:47:40.910Z,35.50
2023-02-13T01:50:21.497Z,34.53
2023-02-13T01:52:59.015Z,34.85
2023-02-13T01:55:32.828Z,33.30
2023-02-13T01:58:12.912Z,35.38
2023-02-13T02:00:46.524Z,32.78
2023-02-13T02:06:00.235Z,33.40
2023-02-13T02:08:32.783Z,33.97
2023-02-13T02:11:15.525Z,34.35
2023-02-13T02:13:47.807Z,35.25
2023-02-13T02:16:19.488Z,36.50
2023-02-13T02:18:51.042Z,35.30
2023-02-13T02:21:45.570Z,34.70
2023-02-13T02:24:31.718Z,35.05
2023-02-13T02:27:24.904Z,34.35
2023-02-13T02:30:27.463Z,34.50
2023-02-13T02:33:10.845Z,34.88
2023-02-13T02:35:48.360Z,35.03
2023-02-13T02:38:45.672Z,35.75
2023-02-13T02:41:42.477Z,35.35
2023-02-13T02:44:32.777Z,35.45
2023-02-13T02:47:14.130Z,36.88
2023-02-13T02:49:55.921Z,37.20
2023-02-13T02:52:57.032Z,36.47
2023-02-13T02:56:05.703Z,37.30
2023-02-13T02:59:00.250Z,35.35
2023-02-13T03:01:33.923Z,37.47
2023-02-13T03:04:06.334Z,35.40
2023-02-13T03:06:49.527Z,36.72
2023-02-13T03:09:27.228Z,36.00
2023-02-13T03:11:59.097Z,36.20
2023-02-13T03:14:30.572Z,36.03
2023-02-13T03:17:03.253Z,36.30
2023-02-13T03:20:08.897Z,36.67
2023-02-13T03:22:50.817Z,38.47
2023-02-13T03:25:30.379Z,38.00
2023-02-13T03:28:39.405Z,36.45
2023-02-13T03:31:49.608Z,38.20
2023-02-13T03:34:25.099Z,37.20
2023-02-13T03:37:05.592Z,36.77
2023-02-13T03:40:02.056Z,36.95
2023-02-13T03:42:50.712Z,35.50
2023-02-13T03:45:32.637Z,35.25
2023-02-13T03:48:07.263Z,36.42
2023-02-13T03:50:43.182Z,37.28
2023-02-13T03:53:15.854Z,35.77
2023-02-13T03:55:48.603Z,35.30
2023-02-13T03:58:27.089Z,37.55
2023-02-13T04:01:01.298Z,37.08
2023-02-13T04:03:45.604Z,36.40
2023-02-13T04:06:21.694Z,37.80
2023-02-13T04:08:53.269Z,36.35
2023-02-13T04:11:33.573Z,35.97
2023-02-13T04:14:13.884Z,36.55
2023-02-13T04:16:52.978Z,35.42
2023-02-13T04:19:26.445Z,36.65
2023-02-13T04:22:00.407Z,36.30
2023-02-13T04:24:31.961Z,37.40
2023-02-13T04:27:03.572Z,36.42
2023-02-13T04:29:34.978Z,35.90
2023-02-13T04:32:06.439Z,37.28
2023-02-13T04:34:37.933Z,37.90
2023-02-13T04:37:09.409Z,36.00
2023-02-13T04:39:40.817Z,34.83
2023-02-13T04:42:12.232Z,34.63
2023-02-13T04:44:43.671Z,34.88
2023-02-13T04:47:15.108Z,35.00
2023-02-13T04:49:46.543Z,34.50
2023-02-13T04:52:18.029Z,35.05
2023-02-13T04:54:49.470Z,36.28
2023-02-13T04:57:20.942Z,35.63
2023-02-13T04:59:52.372Z,34.67
2023-02-13T05:02:27.278Z,34.28
2023-02-13T05:04:58.815Z,33.97
2023-02-13T05:07:30.244Z,34.92
2023-02-13T05:10:01.718Z,34.80
2023-02-13T05:12:33.164Z,35.67
2023-02-13T05:15:06.322Z,33.30
2023-02-13T05:17:37.723Z,33.13
2023-02-13T05:20:09.691Z,34.53
2023-02-13T05:22:48.527Z,33.33
2023-02-13T05:25:19.982Z,33.70
2023-02-13T05:27:51.449Z,34.38
2023-02-13T05:30:23.044Z,35.17
2023-02-13T05:32:54.698Z,34.33
2023-02-13T05:35:26.201Z,33.85
2023-02-13T05:37:57.633Z,34.90
2023-02-13T05:40:29.091Z,33.10
2023-02-13T05:43:00.575Z,32.80
2023-02-13T05:45:32.035Z,33.47
2023-02-13T05:48:03.667Z,32.60
2023-02-13T05:50:35.139Z,34.50
2023-02-13T05:53:06.627Z,33.28
2023-02-13T05:55:39.345Z,32.83
2023-02-13T05:58:10.815Z,33.70
2023-02-13T06:00:42.326Z,34.10
2023-02-13T06:03:14.109Z,33.67
2023-02-13T06:05:47.807Z,33.42
2023-02-13T06:08:19.488Z,33.95
2023-02-13T06:10:51.204Z,33.47
2023-02-13T06:13:22.996Z,34.45
2023-02-13T06:15:54.543Z,33.88
2023-02-13T06:18:25.976Z,33.25
2023-02-13T06:20:57.825Z,33.85
2023-02-13T06:23:29.771Z,32.33
2023-02-13T06:26:06.690Z,32.27
2023-02-13T06:28:38.359Z,31.30
2023-02-13T06:31:10.118Z,32.58
2023-02-13T06:33:41.596Z,32.85
2023-02-13T06:36:13.029Z,32.03
2023-02-13T06:38:44.561Z,32.65
2023-02-13T06:41:16.093Z,31.50
2023-02-13T06:43:47.624Z,30.17
2023-02-13T06:46:19.090Z,32.10
2023-02-13T06:48:50.632Z,32.30
2023-02-13T06:51:22.240Z,32.05
2023-02-13T06:53:53.660Z,30.80
2023-02-13T06:56:25.107Z,32.33
2023-02-13T06:58:56.590Z,31.13
2023-02-13T07:01:28.148Z,32.42
2023-02-13T07:03:59.684Z,31.70
2023-02-13T07:06:32.424Z,30.60
2023-02-13T07:09:05.120Z,31.67
2023-02-13T07:11:36.581Z,32.28
2023-02-13T07:14:09.091Z,31.95
2023-02-13T07:16:40.550Z,31.08
2023-02-13T07:19:11.958Z,31.65
2023-02-13T07:21:43.436Z,32.47
2023-02-13T07:24:14.908Z,31.13
2023-02-13T07:26:46.332Z,31.02
2023-02-13T07:29:17.738Z,31.10
2023-02-13T07:31:49.218Z,30.30
2023-02-13T07:34:20.711Z,28.33
2023-02-13T07:36:52.251Z,30.10
2023-02-13T07:39:23.685Z,30.27
2023-02-13T07:41:55.618Z,30.35
2023-02-13T07:44:27.044Z,29.52
2023-02-13T07:46:58.701Z,30.83
2023-02-13T07:49:30.225Z,29.60
2023-02-13T07:52:01.652Z,30.70
2023-02-13T07:54:33.594Z,31.70
2023-02-13T07:57:05.123Z,33.40
2023-02-13T07:59:36.651Z,31.45
2023-02-13T08:02:12.687Z,31.35
2023-02-13T08:04:44.198Z,31.38
2023-02-13T08:07:17.111Z,31.20
2023-02-13T08:09:48.542Z,31.30
2023-02-13T08:12:20.056Z,30.80
2023-02-13T08:14:53.054Z,31.08
2023-02-13T08:17:24.455Z,31.52
2023-02-13T08:19:55.851Z,30.75
2023-02-13T08:22:27.306Z,32.35
2023-02-13T08:24:58.752Z,33.30
2023-02-13T08:27:30.331Z,31.05
2023-02-13T08:30:01.980Z,32.08
2023-02-13T08:32:48.363Z,30.92
2023-02-13T08:35:24.662Z,32.42
2023-02-13T08:37:56.411Z,31.33
2023-02-13T08:40:27.908Z,32.03
2023-02-13T08:43:01.216Z,32.20
2023-02-13T08:45:33.272Z,31.83
2023-02-13T08:48:04.790Z,31.47
2023-02-13T08:50:37.431Z,31.35
2023-02-13T08:53:09.054Z,30.65
2023-02-13T08:55:40.471Z,30.95
2023-02-13T08:58:11.864Z,32.87
2023-02-13T09:00:43.365Z,32.92
2023-02-13T09:03:14.929Z,30.45
2023-02-13T09:05:46.467Z,32.88
2023-02-13T09:08:18.849Z,32.58
2023-02-13T09:10:56.739Z,30.83
2023-02-13T09:13:32.133Z,32.47
2023-02-13T09:16:08.656Z,32.60
2023-02-13T09:18:40.113Z,32.78
2023-02-13T09:21:12.459Z,35.67
2023-02-13T09:23:43.991Z,34.70
2023-02-13T09:26:16.200Z,34.10
2023-02-13T09:28:48.117Z,34.22
2023-02-13T09:31:21.111Z,34.10
2023-02-13T09:33:52.821Z,33.85
2023-02-13T09:36:24.797Z,35.92
2023-02-13T09:38:57.405Z,34.17
2023-02-13T09:41:28.857Z,34.15
2023-02-13T09:44:23.099Z,36.28
2023-02-13T09:46:54.565Z,35.58
2023-02-13T09:49:30.453Z,37.72
2023-02-13T09:52:01.926Z,37.13
2023-02-13T09:54:33.447Z,36.17
2023-02-13T09:57:36.593Z,35.67
2023-02-13T10:00:22.687Z,37.13
2023-02-13T10:03:17.892Z,38.13
2023-02-13T10:06:04.020Z,38.97
2023-02-13T10:08:47.404Z,37.58
2023-02-13T10:11:42.548Z,37.83
2023-02-13T10:14:19.072Z,38.17
2023-02-13T10:16:59.622Z,38.67
2023-02-13T10:19:51.685Z,38.97
2023-02-13T10:22:29.804Z,37.63
2023-02-13T10:25:14.645Z,37.25
2023-02-13T10:28:06.688Z,39.28
2023-02-13T10:30:55.026Z,38.90
2023-02-13T10:33:33.891Z,38.50
2023-02-13T10:36:11.407Z,36.97
2023-02-13T10:38:57.285Z,37.40
2023-02-13T10:41:50.518Z,36.15
2023-02-13T10:44:29.632Z,35.38
2023-02-13T10:47:14.170Z,35.25
2023-02-13T10:50:13.090Z,37.08
2023-02-13T10:53:22.285Z,35.50
2023-02-13T10:56:04.079Z,36.88
2023-02-13T10:58:47.363Z,37.37
2023-02-13T11:01:34.851Z,33.70
2023-02-13T11:04:10.678Z,36.60
2023-02-13T11:07:03.614Z,34.80
2023-02-13T11:09:39.806Z,35.07
2023-02-13T11:12:28.034Z,34.90
2023-02-13T11:15:05.392Z,34.47
2023-02-13T11:17:40.830Z,33.17
2023-02-13T11:20:39.078Z,33.00
2023-02-13T11:23:22.430Z,33.90
2023-02-13T11:25:59.663Z,34.00
2023-02-13T11:28:35.922Z,33.55
2023-02-13T11:31:29.700Z,34.25
2023-02-13T11:34:18.468Z,32.93
2023-02-13T11:36:53.243Z,34.88
2023-02-13T11:39:26.774Z,33.47
2023-02-13T11:41:59.287Z,35.13
2023-02-13T11:44:32.863Z,35.33
2023-02-13T11:47:04.540Z,34.25
2023-02-13T11:49:38.487Z,35.28
2023-02-13T11:52:26.032Z,34.50
2023-02-13T11:55:02.151Z,35.00
2023-02-13T11:57:37.288Z,33.90
2023-02-13T12:00:28.467Z,34.37
2023-02-13T12:02:59.998Z,35.23
2023-02-13T12:05:31.515Z,34.72
2023-02-13T12:08:03.062Z,34.65
2023-02-13T12:10:38.257Z,33.80
2023-02-13T12:13:27.426Z,34.33
2023-02-13T12:16:08.401Z,35.40
2023-02-13T12:18:48.330Z,35.70
2023-02-13T12:21:34.856Z,36.40
2023-02-13T12:24:42.543Z,34.97
2023-02-13T12:27:50.132Z,33.53
2023-02-13T12:30:38.741Z,32.95
2023-02-13T12:33:47.004Z,31.58
2023-02-13T12:36:47.496Z,33.53
2023-02-13T12:39:34.416Z,31.92
2023-02-13T12:42:21.272Z,32.97
2023-02-13T12:45:12.882Z,33.13
2023-02-13T12:48:08.757Z,32.05
2023-02-13T12:50:59.353Z,32.25
2023-02-13T12:53:52.424Z,31.47
2023-02-13T12:56:50.886Z,32.75
2023-02-13T12:59:34.177Z,32.05
2023-02-13T13:02:21.139Z,33.17
2023-02-13T13:05:23.536Z,31.23
2023-02-13T13:08:08.994Z,31.15
2023-02-13T13:11:15.450Z,31.88
2023-02-13T13:14:11.737Z,31.65
2023-02-13T13:16:49.055Z,29.10
2023-02-13T13:19:47.447Z,29.53
2023-02-13T13:22:44.928Z,26.88
2023-02-13T13:25:30.147Z,28.52
2023-02-13T13:28:07.985Z,27.73
2023-02-13T13:30:41.212Z,29.23
2023-02-13T13:33:17.012Z,27.20
2023-02-13T13:36:09.555Z,28.00
2023-02-13T13:38:40.899Z,27.00
2023-02-13T13:41:18.963Z,25.50
2023-02-13T13:44:13.535Z,24.98
2023-02-13T13:46:55.888Z,25.33
2023-02-13T13:49:42.649Z,25.17
2023-02-13T13:52:26.211Z,24.40
2023-02-13T13:54:59.157Z,23.75
2023-02-13T13:57:39.951Z,24.15
2023-02-13T14:00:14.114Z,22.63
2023-02-13T14:02:50.150Z,22.58
2023-02-13T14:05:26.221Z,22.08
2023-02-13T14:08:03.809Z,22.75
2023-02-13T14:10:35.271Z,22.08
2023-02-13T14:13:06.921Z,20.67
2023-02-13T14:15:38.404Z,22.27
2023-02-13T14:18:09.826Z,22.57
2023-02-13T14:20:47.298Z,21.85
2023-02-13T14:23:21.708Z,20.00
2023-02-13T14:26:30.107Z,20.13
2023-02-13T14:29:10.850Z,20.58
2023-02-13T14:31:52.595Z,20.02
2023-02-13T14:34:29.709Z,19.80
2023-02-13T14:37:13.680Z,19.38
2023-02-13T14:40:14.229Z,20.58
2023-02-13T14:42:54.184Z,19.50
2023-02-13T14:45:31.726Z,20.83
2023-02-13T14:48:07.892Z,18.13
2023-02-13T14:50:56.519Z,19.02
2023-02-13T14:53:58.524Z,19.42
2023-02-13T14:56:31.254Z,19.27
2023-02-13T14:59:16.391Z,19.92
2023-02-13T15:01:53.665Z,19.13
2023-02-13T15:04:38.930Z,19.25
2023-02-13T15:07:23.817Z,18.58
2023-02-13T15:10:00.971Z,19.60
2023-02-13T15:12:35.409Z,19.67
2023-02-13T15:15:39.681Z,19.23
2023-02-13T15:18:25.154Z,18.05
2023-02-13T15:20:59.210Z,18.52
2023-02-13T15:23:33.053Z,18.35
2023-02-13T15:26:06.670Z,17.75
2023-02-13T15:28:38.068Z,17.63
2023-02-13T15:31:24.006Z,18.10
2023-02-13T15:33:55.565Z,16.95
2023-02-13T15:36:35.942Z,17.17
2023-02-13T15:39:09.676Z,17.42
2023-02-13T15:41:45.090Z,16.83
2023-02-13T15:44:27.346Z,16.58
2023-02-13T15:47:07.583Z,16.75
2023-02-13T15:49:43.120Z,16.70
2023-02-13T15:52:21.587Z,16.85
2023-02-13T15:54:55.638Z,16.83
2023-02-13T15:57:28.094Z,17.38
2023-02-13T16:00:01.520Z,16.80
2023-02-13T16:02:46.244Z,17.00
2023-02-13T16:05:26.542Z,16.10
2023-02-13T16:08:38.901Z,16.15
2023-02-13T16:11:16.353Z,15.80
2023-02-13T16:14:18.974Z,16.98
2023-02-13T16:16:53.512Z,16.90
2023-02-13T16:19:39.546Z,18.57
2023-02-13T16:22:26.345Z,19.13
2023-02-13T16:25:15.859Z,18.52
2023-02-13T16:27:59.834Z,19.20
2023-02-13T16:30:34.797Z,19.45
2023-02-13T16:33:12.141Z,19.65
2023-02-13T16:35:44.984Z,19.25
2023-02-13T16:38:38.345Z,18.98
2023-02-13T16:41:18.907Z,18.58
2023-02-13T16:44:01.224Z,19.52
2023-02-13T16:46:42.692Z,19.58
2023-02-13T16:49:19.418Z,19.15
2023-02-13T16:52:09.742Z,19.85
2023-02-13T16:55:00.276Z,19.00
2023-02-13T16:57:34.240Z,19.92
2023-02-13T17:00:20.309Z,19.88
2023-02-13T17:02:51.825Z,20.10
2023-02-13T17:05:26.396Z,21.15
2023-02-13T17:07:57.831Z,19.70
2023-02-13T17:10:30.804Z,21.20
2023-02-13T17:13:16.826Z,19.98
2023-02-13T17:15:48.432Z,21.13
2023-02-13T17:18:20.138Z,21.63
2023-02-13T17:20:51.769Z,21.95
2023-02-13T17:23:24.870Z,20.23
2023-02-13T17:25:56.276Z,19.83
2023-02-13T17:28:28.137Z,21.17
2023-02-13T17:31:00.533Z,19.58
2023-02-13T17:33:32.804Z,22.58
2023-02-13T17:36:04.637Z,19.92
2023-02-13T17:38:36.055Z,20.90
2023-02-13T17:41:14.914Z,21.95
2023-02-13T17:43:46.368Z,20.45
2023-02-13T17:46:17.935Z,20.77
2023-02-13T17:48:49.455Z,23.10
2023-02-13T17:51:21.350Z,23.67
2023-02-13T17:53:53.772Z,21.03
2023-02-13T17:56:25.206Z,22.77
2023-02-13T17:58:56.674Z,23.90
2023-02-13T18:01:28.269Z,22.73
2023-02-13T18:03:59.833Z,21.98
2023-02-13T18:06:31.320Z,21.23
2023-02-13T18:09:02.846Z,22.08
2023-02-13T18:11:34.298Z,22.40
2023-02-13T18:14:05.723Z,21.85
2023-02-13T18:16:37.157Z,22.83
2023-02-13T18:19:08.569Z,23.50
2023-02-13T18:21:41.044Z,23.33
2023-02-13T18:24:12.531Z,23.33
2023-02-13T18:26:44.188Z,23.38
2023-02-13T18:29:15.624Z,21.33
2023-02-13T18:31:47.133Z,21.10
2023-02-13T18:34:22.895Z,21.70
2023-02-13T18:36:54.333Z,22.47
2023-02-13T18:39:25.814Z,22.55
2023-02-13T18:41:57.268Z,22.92
2023-02-13T18:54:36.093Z,22.77
2023-02-13T18:57:07.574Z,25.40
2023-02-13T18:59:38.983Z,27.92
2023-02-13T19:02:10.783Z,22.35
2023-02-13T19:04:42.604Z,22.27
2023-02-13T19:07:14.018Z,22.35
2023-02-13T19:09:45.469Z,23.00
2023-02-13T19:12:16.981Z,23.52
2023-02-13T19:14:48.421Z,25.10
2023-02-13T19:17:19.947Z,23.33
2023-02-13T19:19:51.437Z,25.25
2023-02-13T19:22:22.948Z,26.67
2023-02-13T19:24:54.421Z,28.30
2023-02-13T19:27:25.972Z,25.38
2023-02-13T19:29:57.535Z,25.98
2023-02-13T19:32:29.065Z,23.92
2023-02-13T19:35:00.532Z,25.77
2023-02-13T19:37:43.064Z,25.98
2023-02-13T19:40:15.254Z,25.45
2023-02-13T19:42:46.682Z,24.48
2023-02-13T19:45:18.190Z,23.75
2023-02-13T19:47:49.642Z,25.88
2023-02-13T19:50:21.100Z,25.08
2023-02-13T19:52:52.496Z,28.27
2023-02-13T19:55:23.968Z,24.58
2023-02-13T19:57:55.424Z,25.73
2023-02-13T20:00:26.951Z,24.98
2023-02-13T20:03:03.192Z,25.77
2023-02-13T20:05:41.213Z,26.02
2023-02-13T20:08:12.722Z,28.45
2023-02-13T20:10:45.646Z,26.63
2023-02-13T20:13:17.072Z,26.98
2023-02-13T20:15:48.616Z,27.55
2023-02-13T20:18:20.107Z,27.80
2023-02-13T20:20:51.592Z,27.73
2023-02-13T20:23:23.153Z,26.90
2023-02-13T20:25:54.597Z,25.98
2023-02-13T20:28:26.176Z,26.10
2023-02-13T20:30:58.107Z,26.80
2023-02-13T20:33:29.803Z,26.45
2023-02-13T20:36:10.616Z,28.73
2023-02-13T20:38:43.024Z,29.50
2023-02-13T20:41:20.442Z,27.40
2023-02-13T20:43:52.366Z,26.85
2023-02-13T20:46:23.847Z,27.23
2023-02-13T20:48:55.298Z,26.63
2023-02-13T20:51:26.753Z,25.67
2023-02-13T20:53:58.196Z,25.85
2023-02-13T20:56:29.993Z,26.40
2023-02-13T20:59:01.431Z,26.58
2023-02-13T21:01:35.350Z,26.48
2023-02-13T21:04:10.650Z,28.67
2023-02-13T21:06:42.194Z,30.33
2023-02-13T21:09:14.863Z,27.50
2023-02-13T21:11:46.391Z,26.35
2023-02-13T21:14:18.421Z,27.70
2023-02-13T21:16:49.961Z,27.13
2023-02-13T21:19:21.454Z,26.90
2023-02-13T21:21:52.931Z,28.63
2023-02-13T21:24:24.332Z,26.90
2023-02-13T21:26:55.778Z,27.20
2023-02-13T21:29:27.357Z,25.52
2023-02-13T21:31:58.884Z,25.15
2023-02-13T21:34:30.475Z,26.20
2023-02-13T21:37:01.888Z,26.75
2023-02-13T21:39:34.143Z,27.50
2023-02-13T21:42:05.615Z,26.02
2023-02-13T21:44:37.096Z,25.42
2023-02-13T21:47:08.511Z,24.45
2023-02-13T21:49:40.044Z,24.10
2023-02-13T21:52:11.488Z,26.27
2023-02-13T21:54:42.934Z,25.73
2023-02-13T21:57:14.384Z,26.45
2023-02-13T21:59:45.836Z,27.30
2023-02-13T22:02:17.553Z,26.30
2023-02-13T22:04:49.422Z,26.63
2023-02-13T22:07:20.902Z,26.73
2023-02-13T22:09:52.360Z,26.50
2023-02-13T22:12:23.819Z,25.75
2023-02-13T22:14:55.246Z,26.42
2023-02-13T22:17:26.712Z,26.45
2023-02-13T22:19:58.217Z,27.27
2023-02-13T22:22:29.706Z,27.27
2023-02-13T22:25:01.103Z,27.05
2023-02-13T22:27:32.570Z,31.17
2023-02-13T22:30:04.454Z,27.70
2023-02-13T22:32:38.422Z,26.73
2023-02-13T22:35:09.936Z,25.52
2023-02-13T22:37:41.388Z,26.27
2023-02-13T22:40:12.959Z,25.45
2023-02-13T22:42:44.396Z,25.58
2023-02-13T22:45:15.964Z,27.73
2023-02-13T22:47:47.361Z,28.83
2023-02-13T22:50:19.708Z,29.67
2023-02-13T22:52:51.169Z,26.80
2023-02-13T22:55:22.773Z,29.63
2023-02-13T22:57:54.481Z,24.98
2023-02-13T23:00:26.048Z,25.58
2023-02-13T23:02:57.478Z,26.83
2023-02-13T23:05:28.895Z,26.67
2023-02-13T23:08:00.317Z,25.55
2023-02-13T23:10:31.798Z,27.55
2023-02-13T23:13:06.334Z,26.25
2023-02-13T23:15:37.831Z,26.00
2023-02-13T23:18:11.139Z,28.15
2023-02-13T23:20:43.675Z,27.95
2023-02-13T23:23:15.156Z,27.90
2023-02-13T23:25:46.585Z,27.08
2023-02-13T23:28:18.144Z,28.35
2023-02-13T23:30:49.661Z,27.00
2023-02-13T23:33:21.266Z,28.55
2023-02-13T23:35:52.800Z,25.55
2023-02-13T23:38:24.414Z,27.92
2023-02-13T23:40:55.828Z,26.33
2023-02-13T23:43:27.240Z,38.53
2023-02-13T23:45:58.746Z,28.55
2023-02-13T23:48:30.215Z,29.63
2023-02-13T23:51:02.065Z,32.72
2023-02-13T23:53:37.050Z,26.88
2023-02-13T23:56:08.464Z,27.40
2023-02-13T23:58:39.994Z,26.87
